Time;durP1;ratioP1;P1;durP2;ratioP2;P2;SDS_P1;SDS_P2;PMS_P1;PMS_P2;Temp;Humidity;BMP_temperature;BMP_pressure;BME280_temperature;BME280_humidity;BME280_pressure;Samples;Min_cycle;Max_cycle;Signal;HPM_P1;HPM_P2
2022/06/23 00:04:47;;;;;;;3.88;2.60;;;;;;;;;;10325721;28;20023;-58
2022/06/23 00:09:53;;;;;;;7.32;2.63;;;;;;;;;;10322298;28;20181;-60
2022/06/23 00:15:00;;;;;;;4.65;2.30;;;;;;;;;;10317319;28;20131;-60
2022/06/23 00:20:09;;;;;;;3.97;2.60;;;;;;;;;;10321981;28;20409;-60
2022/06/23 00:25:42;;;;;;;9.13;2.45;;;;;;;;;;10314242;28;20022;-60
2022/06/23 00:30:43;;;;;;;5.13;2.55;;;;;;;;;;10305672;28;20031;-58
2022/06/23 00:35:46;;;;;;;4.43;2.55;;;;;;;;;;10323539;28;20381;-57
2022/06/23 00:40:47;;;;;;;2.95;2.30;;;;;;;;;;10307358;28;20034;-59
2022/06/23 00:45:54;;;;;;;2.35;2.13;;;;;;;;;;10311479;28;20037;-58
2022/06/23 00:51:08;;;;;;;4.72;2.50;;;;;;;;;;10311026;28;20037;-58
2022/06/23 00:56:34;;;;;;;5.20;2.70;;;;;;;;;;10323784;28;20049;-60
2022/06/23 01:01:56;;;;;;;9.25;2.40;;;;;;;;;;10325479;28;20027;-60
2022/06/23 01:07:07;;;;;;;2.67;1.92;;;;;;;;;;10330160;28;20030;-57
2022/06/23 01:12:30;;;;;;;8.30;2.20;;;;;;;;;;10331466;28;20532;-59
2022/06/23 01:18:11;;;;;;;2.70;2.20;;;;;;;;;;10307632;28;20370;-59
2022/06/23 01:23:33;;;;;;;5.30;2.42;;;;;;;;;;10330900;28;20056;-59
2022/06/23 01:28:41;;;;;;;5.10;3.00;;;;;;;;;;10317230;28;20064;-59
2022/06/23 01:33:54;;;;;;;4.65;2.35;;;;;;;;;;10330198;28;20031;-59
2022/06/23 01:39:36;;;;;;;5.03;2.30;;;;;;;;;;10318856;28;20018;-59
2022/06/23 01:44:57;;;;;;;6.57;2.10;;;;;;;;;;10308457;28;20133;-58
2022/06/23 01:50:13;;;;;;;6.65;2.35;;;;;;;;;;10331102;28;20061;-60
2022/06/23 01:55:23;;;;;;;5.00;2.55;;;;;;;;;;10307930;28;20105;-58
2022/06/23 02:00:27;;;;;;;6.00;2.65;;;;;;;;;;10329624;28;20026;-57
2022/06/23 02:05:49;;;;;;;3.20;2.55;;;;;;;;;;10318258;28;20033;-56
2022/06/23 02:11:17;;;;;;;4.07;2.50;;;;;;;;;;10318704;28;20062;-60
2022/06/23 02:16:39;;;;;;;3.40;2.35;;;;;;;;;;10318415;28;20109;-59
2022/06/23 02:21:54;;;;;;;2.58;2.30;;;;;;;;;;10322896;28;20046;-58
2022/06/23 02:27:20;;;;;;;5.45;2.28;;;;;;;;;;10321806;28;20058;-58
2022/06/23 02:32:35;;;;;;;3.28;2.30;;;;;;;;;;10316809;28;20032;-58
2022/06/23 02:38:12;;;;;;;2.78;2.38;;;;;;;;;;10330311;28;20062;-56
2022/06/23 02:43:51;;;;;;;2.28;2.03;;;;;;;;;;10313865;28;20030;-56
2022/06/23 02:49:22;;;;;;;7.47;2.30;;;;;;;;;;10310397;28;20066;-60
2022/06/23 02:55:08;;;;;;;3.03;2.08;;;;;;;;;;10327484;28;20520;-59
2022/06/23 03:00:31;;;;;;;2.30;2.08;;;;;;;;;;10328860;28;20113;-60
2022/06/23 03:05:56;;;;;;;7.32;2.40;;;;;;;;;;10322771;28;20026;-58
2022/06/23 03:17:03;;;;;;;8.48;2.38;;;;;;;;;;10305761;28;20053;-59
2022/06/23 03:22:11;;;;;;;5.72;2.40;;;;;;;;;;10321281;28;20386;-59
2022/06/23 03:27:32;;;;;;;7.72;2.58;;;;;;;;;;10326204;28;20109;-59
2022/06/23 03:32:46;;;;;;;2.85;1.95;;;;;;;;;;10326231;28;20066;-58
2022/06/23 03:37:56;;;;;;;4.00;2.47;;;;;;;;;;10326676;28;20033;-55
2022/06/23 03:43:08;;;;;;;3.33;2.00;;;;;;;;;;10327505;28;20042;-58
2022/06/23 03:48:30;;;;;;;9.45;1.95;;;;;;;;;;10319700;28;20470;-58
2022/06/23 03:53:38;;;;;;;2.10;1.90;;;;;;;;;;10326176;28;20445;-59
2022/06/23 03:59:08;;;;;;;5.32;2.25;;;;;;;;;;10312972;28;20453;-59
2022/06/23 04:04:13;;;;;;;6.55;2.08;;;;;;;;;;10316074;28;20034;-60
2022/06/23 04:09:27;;;;;;;3.50;2.33;;;;;;;;;;10327489;28;20032;-60
2022/06/23 04:14:59;;;;;;;3.20;2.03;;;;;;;;;;10326097;28;20034;-57
2022/06/23 04:20:15;;;;;;;7.97;2.53;;;;;;;;;;10309599;28;20035;-59
2022/06/23 04:25:24;;;;;;;2.50;2.17;;;;;;;;;;10325450;28;20621;-59
2022/06/23 04:30:38;;;;;;;3.25;2.15;;;;;;;;;;10325176;28;20018;-56
2022/06/23 04:35:40;;;;;;;4.00;2.00;;;;;;;;;;10323194;28;20034;-60
2022/06/23 04:40:41;;;;;;;2.70;2.10;;;;;;;;;;10324348;28;20429;-57
2022/06/23 04:46:14;;;;;;;3.55;1.95;;;;;;;;;;10325602;28;20093;-59
2022/06/23 04:51:34;;;;;;;5.93;1.92;;;;;;;;;;10308711;28;20065;-58
2022/06/23 04:56:41;;;;;;;2.03;1.83;;;;;;;;;;10320552;28;20050;-59
2022/06/23 05:01:46;;;;;;;5.70;1.88;;;;;;;;;;10310756;28;20037;-59
2022/06/23 05:06:52;;;;;;;7.43;1.95;;;;;;;;;;10319369;28;20498;-55
2022/06/23 05:11:57;;;;;;;3.28;1.77;;;;;;;;;;10307004;28;20026;-60
2022/06/23 05:17:12;;;;;;;5.90;2.22;;;;;;;;;;10307525;28;20034;-59
2022/06/23 05:22:39;;;;;;;3.08;2.03;;;;;;;;;;10320486;28;20065;-58
2022/06/23 05:27:45;;;;;;;14.18;2.13;;;;;;;;;;10320795;28;20037;-57
2022/06/23 05:32:52;;;;;;;26.45;11.13;;;;;;;;;;10318947;28;20043;-57
2022/06/23 05:37:58;;;;;;;35.55;14.15;;;;;;;;;;10322945;28;20034;-57
2022/06/23 05:43:01;;;;;;;28.58;14.38;;;;;;;;;;10324275;28;20114;-52
2022/06/23 05:48:10;;;;;;;38.28;12.48;;;;;;;;;;10321051;28;20090;-56
2022/06/23 05:53:40;;;;;;;29.48;13.68;;;;;;;;;;10320487;28;20042;-49
2022/06/23 05:59:00;;;;;;;33.22;10.68;;;;;;;;;;10325310;28;20490;-57
2022/06/23 06:04:36;;;;;;;36.88;11.38;;;;;;;;;;10315562;28;20035;-59
2022/06/23 06:09:40;;;;;;;26.83;9.55;;;;;;;;;;10317079;28;20034;-56
2022/06/23 06:15:19;;;;;;;39.50;10.10;;;;;;;;;;10329410;28;20038;-57
2022/06/23 06:20:25;;;;;;;43.55;9.85;;;;;;;;;;10313483;28;20472;-60
2022/06/23 06:25:34;;;;;;;27.40;8.63;;;;;;;;;;10327100;28;20037;-57
2022/06/23 06:30:39;;;;;;;26.95;8.85;;;;;;;;;;10330457;28;20038;-60
2022/06/23 06:35:52;;;;;;;27.20;8.15;;;;;;;;;;10303110;28;20393;-56
2022/06/23 06:40:56;;;;;;;28.70;8.02;;;;;;;;;;10321397;28;20119;-60
2022/06/23 06:45:58;;;;;;;19.55;7.45;;;;;;;;;;10325205;28;20035;-59
2022/06/23 06:51:14;;;;;;;17.15;7.40;;;;;;;;;;10324345;28;20058;-54
2022/06/23 06:56:24;;;;;;;16.85;6.97;;;;;;;;;;10309359;28;20429;-61
2022/06/23 07:01:27;;;;;;;17.83;8.10;;;;;;;;;;10319136;28;20517;-56
2022/06/23 07:06:47;;;;;;;18.45;7.50;;;;;;;;;;10306565;28;20112;-61
2022/06/23 07:12:18;;;;;;;15.50;7.05;;;;;;;;;;10318424;28;20030;-58
2022/06/23 07:17:43;;;;;;;22.55;7.75;;;;;;;;;;10321787;28;20070;-60
2022/06/23 07:22:53;;;;;;;21.65;7.43;;;;;;;;;;10318418;28;20034;-59
2022/06/23 07:28:13;;;;;;;15.20;7.40;;;;;;;;;;10312635;28;20092;-59
2022/06/23 07:33:38;;;;;;;16.52;7.28;;;;;;;;;;10306243;28;20088;-61
2022/06/23 07:39:01;;;;;;;19.48;7.75;;;;;;;;;;10323865;28;20027;-62
2022/06/23 07:44:07;;;;;;;17.35;8.13;;;;;;;;;;10312754;28;20080;-60
2022/06/23 07:49:08;;;;;;;20.15;6.85;;;;;;;;;;10321066;28;20421;-59
2022/06/23 07:54:18;;;;;;;22.67;7.40;;;;;;;;;;10306610;28;20112;-61
2022/06/23 07:59:29;;;;;;;21.83;7.20;;;;;;;;;;10318833;28;20141;-55
2022/06/23 08:05:14;;;;;;;23.95;7.57;;;;;;;;;;10310161;28;20027;-57
2022/06/23 08:10:21;;;;;;;21.17;8.00;;;;;;;;;;10313574;28;20500;-61
2022/06/23 08:21:13;;;;;;;17.55;8.30;;;;;;;;;;10321952;28;20039;-60
2022/06/23 08:26:16;;;;;;;21.40;7.65;;;;;;;;;;10312009;28;20077;-56
2022/06/23 08:31:18;;;;;;;19.45;7.28;;;;;;;;;;10317724;28;20038;-57
2022/06/23 08:36:28;;;;;;;14.68;6.82;;;;;;;;;;10308676;28;20029;-59
2022/06/23 08:41:56;;;;;;;12.85;7.10;;;;;;;;;;10322190;28;20029;-57
2022/06/23 08:47:32;;;;;;;20.13;7.10;;;;;;;;;;10322550;28;20030;-60
2022/06/23 08:52:47;;;;;;;19.42;7.38;;;;;;;;;;10297753;28;20051;-61
2022/06/23 08:58:11;;;;;;;20.15;7.30;;;;;;;;;;10304387;28;20031;-56
2022/06/23 09:03:21;;;;;;;17.58;7.10;;;;;;;;;;10305063;28;20061;-60
2022/06/23 09:08:53;;;;;;;17.73;6.80;;;;;;;;;;10309053;28;20080;-57
2022/06/23 09:14:48;;;;;;;22.98;8.10;;;;;;;;;;10308154;28;20112;-52
2022/06/23 09:20:09;;;;;;;32.55;8.35;;;;;;;;;;10307857;28;20080;-57
2022/06/23 09:25:24;;;;;;;14.93;7.82;;;;;;;;;;10310645;28;20023;-55
2022/06/23 09:30:49;;;;;;;22.10;7.70;;;;;;;;;;10331485;28;20069;-54
2022/06/23 09:36:06;;;;;;;23.00;8.05;;;;;;;;;;10316646;28;20037;-57
2022/06/23 09:41:27;;;;;;;18.45;7.93;;;;;;;;;;10330954;28;20530;-59
2022/06/23 09:46:57;;;;;;;28.95;8.10;;;;;;;;;;10327267;28;20146;-59
2022/06/23 09:52:13;;;;;;;18.10;7.65;;;;;;;;;;10319321;28;20034;-60
2022/06/23 09:58:10;;;;;;;18.63;7.40;;;;;;;;;;10312140;28;20488;-58
2022/06/23 10:03:24;;;;;;;17.70;7.53;;;;;;;;;;10300750;28;20258;-58
2022/06/23 10:08:44;;;;;;;18.55;7.55;;;;;;;;;;10330543;28;20359;-57
2022/06/23 10:14:21;;;;;;;25.92;7.68;;;;;;;;;;10327254;28;20023;-60
2022/06/23 10:19:48;;;;;;;21.07;8.07;;;;;;;;;;10323538;28;20398;-60
2022/06/23 10:25:00;;;;;;;17.13;7.05;;;;;;;;;;10304676;28;20038;-56
2022/06/23 10:30:15;;;;;;;33.47;7.20;;;;;;;;;;10330215;28;20061;-56
2022/06/23 10:35:38;;;;;;;16.88;7.07;;;;;;;;;;10329346;28;20374;-54
2022/06/23 10:40:58;;;;;;;19.27;7.72;;;;;;;;;;10322859;28;20029;-59
2022/06/23 10:46:44;;;;;;;14.60;7.82;;;;;;;;;;10327000;28;20081;-49
2022/06/23 10:52:12;;;;;;;15.18;7.45;;;;;;;;;;10299851;28;20157;-49
2022/06/23 10:57:49;;;;;;;17.00;7.18;;;;;;;;;;10319318;28;20027;-51
2022/06/23 11:03:08;;;;;;;;;;;;;;;;;;10319459;28;20050;-48
2022/06/23 11:08:15;;;;;;;12.48;7.30;;;;;;;;;;10317977;28;19913;-58
2022/06/23 11:14:12;;;;;;;11.73;6.10;;;;;;;;;;10323379;28;20038;-60
2022/06/23 11:19:46;;;;;;;17.67;6.53;;;;;;;;;;10196763;29;20578;-60
2022/06/23 11:25:11;;;;;;;15.73;7.28;;;;;;;;;;10195147;29;20905;-62
2022/06/23 11:30:48;;;;;;;20.85;7.05;;;;;;;;;;10190818;29;20052;-62
2022/06/23 11:36:01;;;;;;;;;;;;;;;;;;10172137;29;20043;-61
2022/06/23 11:41:28;;;;;;;23.85;8.10;;;;;;;;;;10196416;29;19921;-60
2022/06/23 11:46:46;;;;;;;30.25;8.02;;;;;;;;;;10164867;28;20420;-58
2022/06/23 11:52:22;;;;;;;20.52;6.85;;;;;;;;;;10301874;28;20043;-56
2022/06/23 11:57:56;;;;;;;20.75;8.20;;;;;;;;;;10322450;28;20529;-57
2022/06/23 12:03:27;;;;;;;17.77;6.68;;;;;;;;;;10315283;28;20037;-58
2022/06/23 12:08:35;;;;;;;15.90;6.88;;;;;;;;;;10321171;28;20080;-62
2022/06/23 12:13:36;;;;;;;20.40;6.78;;;;;;;;;;10324563;28;20029;-62
2022/06/23 12:18:55;;;;;;;14.75;6.20;;;;;;;;;;10316206;28;20046;-61
2022/06/23 12:24:12;;;;;;;15.55;7.47;;;;;;;;;;10308864;28;20135;-56
2022/06/23 12:29:25;;;;;;;20.50;7.60;;;;;;;;;;10320975;28;20050;-58
2022/06/23 12:34:50;;;;;;;16.48;7.20;;;;;;;;;;10318650;28;20038;-54
2022/06/23 12:40:09;;;;;;;18.38;7.25;;;;;;;;;;10312468;28;20401;-58
2022/06/23 12:45:33;;;;;;;21.98;7.10;;;;;;;;;;10325311;28;20551;-58
2022/06/23 12:50:55;;;;;;;23.10;7.25;;;;;;;;;;10312933;28;20030;-56
2022/06/23 12:56:21;;;;;;;26.33;7.60;;;;;;;;;;10312156;28;20129;-58
2022/06/23 13:02:07;;;;;;;24.90;7.45;;;;;;;;;;10311971;28;20121;-52
2022/06/23 13:07:28;;;;;;;22.58;7.03;;;;;;;;;;10278905;28;20054;-57
2022/06/23 13:12:36;;;;;;;24.85;6.93;;;;;;;;;;10268671;28;20038;-54
2022/06/23 13:18:08;;;;;;;27.48;7.20;;;;;;;;;;10279909;28;20035;-58
2022/06/23 13:23:20;;;;;;;15.77;6.78;;;;;;;;;;10283814;28;20035;-59
2022/06/23 13:28:40;;;;;;;24.05;7.30;;;;;;;;;;10249648;28;20295;-55
2022/06/23 13:34:00;;;;;;;31.60;7.13;;;;;;;;;;10269948;28;20042;-55
2022/06/23 13:39:33;;;;;;;354.52;25.05;;;;;;;;;;10297858;28;20030;-54
2022/06/23 13:45:38;;;;;;;39.33;8.20;;;;;;;;;;10324254;28;20039;-53
2022/06/23 13:51:26;;;;;;;44.80;8.90;;;;;;;;;;10313564;28;20127;-53
2022/06/23 13:57:10;;;;;;;46.05;7.78;;;;;;;;;;10311348;28;20065;-51
2022/06/23 14:02:39;;;;;;;24.67;6.88;;;;;;;;;;10301970;28;20026;-52
2022/06/23 14:08:10;;;;;;;19.67;6.93;;;;;;;;;;10324337;28;20038;-50
2022/06/23 14:13:29;;;;;;;21.45;7.30;;;;;;;;;;10298131;28;20031;-52
2022/06/23 14:18:49;;;;;;;21.77;6.97;;;;;;;;;;10312770;28;20066;-50
2022/06/23 14:24:14;;;;;;;17.55;5.80;;;;;;;;;;10316773;28;20462;-54
2022/06/23 14:29:25;;;;;;;23.45;6.53;;;;;;;;;;10328367;28;20359;-53
2022/06/23 14:34:34;;;;;;;23.58;6.40;;;;;;;;;;10329093;28;20084;-52
2022/06/23 14:40:08;;;;;;;21.23;6.75;;;;;;;;;;10321722;28;20113;-52
2022/06/23 14:45:44;;;;;;;18.05;6.47;;;;;;;;;;10327793;28;20049;-50
2022/06/23 14:51:03;;;;;;;22.67;6.55;;;;;;;;;;10302877;28;20656;-57
2022/06/23 14:56:32;;;;;;;20.88;6.80;;;;;;;;;;10325080;28;20053;-55
2022/06/23 15:02:01;;;;;;;22.38;6.45;;;;;;;;;;10317650;28;20506;-50
2022/06/23 15:07:12;;;;;;;23.45;6.78;;;;;;;;;;10319441;28;20089;-51
2022/06/23 15:12:29;;;;;;;16.90;6.72;;;;;;;;;;10322322;28;20026;-53
2022/06/23 15:17:56;;;;;;;26.25;7.35;;;;;;;;;;10324466;28;20019;-54
2022/06/23 15:23:10;;;;;;;32.03;6.97;;;;;;;;;;10320058;28;20082;-56
2022/06/23 15:28:53;;;;;;;18.77;6.45;;;;;;;;;;10323645;28;20030;-53
2022/06/23 15:34:07;;;;;;;19.40;6.88;;;;;;;;;;10315002;28;20501;-55
2022/06/23 15:39:51;;;;;;;23.00;7.03;;;;;;;;;;10314073;28;20042;-57
2022/06/23 15:45:32;;;;;;;24.77;7.28;;;;;;;;;;10308553;28;20066;-51
2022/06/23 15:50:44;;;;;;;23.50;7.15;;;;;;;;;;10314166;28;20494;-56
2022/06/23 15:55:55;;;;;;;27.55;6.82;;;;;;;;;;10312436;28;20062;-56
2022/06/23 16:01:46;;;;;;;21.13;6.25;;;;;;;;;;10317561;28;20113;-54
2022/06/23 16:06:50;;;;;;;27.92;7.57;;;;;;;;;;10318784;28;20038;-54
2022/06/23 16:11:55;;;;;;;24.45;7.18;;;;;;;;;;10316804;28;20385;-53
2022/06/23 16:17:06;;;;;;;42.30;8.25;;;;;;;;;;10301405;28;20041;-55
2022/06/23 16:22:14;;;;;;;33.97;8.82;;;;;;;;;;10313245;28;20042;-53
2022/06/23 16:27:36;;;;;;;30.58;7.85;;;;;;;;;;10318491;28;20027;-54
2022/06/23 16:32:45;;;;;;;34.63;8.35;;;;;;;;;;10324151;28;20045;-53
2022/06/23 16:37:58;;;;;;;27.63;7.65;;;;;;;;;;10318119;28;20030;-55
2022/06/23 16:43:18;;;;;;;25.48;7.65;;;;;;;;;;10312355;28;20165;-51
2022/06/23 16:48:26;;;;;;;34.65;7.60;;;;;;;;;;10302739;28;20419;-57
2022/06/23 16:53:45;;;;;;;33.50;8.50;;;;;;;;;;10313435;28;20410;-54
2022/06/23 16:59:10;;;;;;;28.27;7.72;;;;;;;;;;10324208;28;20488;-55
2022/06/23 17:04:34;;;;;;;33.50;7.82;;;;;;;;;;10323603;28;20034;-54
2022/06/23 17:09:42;;;;;;;33.92;7.63;;;;;;;;;;10312714;28;20031;-55
2022/06/23 17:14:55;;;;;;;29.95;8.35;;;;;;;;;;10314986;28;20035;-58
2022/06/23 17:19:59;;;;;;;35.78;6.85;;;;;;;;;;10311863;28;20441;-57
2022/06/23 17:25:05;;;;;;;31.25;7.10;;;;;;;;;;10316363;28;20513;-57
2022/06/23 17:30:25;;;;;;;31.27;7.53;;;;;;;;;;10306751;28;20027;-57
2022/06/23 17:35:39;;;;;;;30.48;7.72;;;;;;;;;;10310309;28;20091;-56
2022/06/23 17:46:36;;;;;;;31.73;6.88;;;;;;;;;;10318347;28;20038;-52
2022/06/23 17:52:02;;;;;;;31.50;7.22;;;;;;;;;;10324279;28;20042;-52
2022/06/23 17:57:12;;;;;;;32.10;6.97;;;;;;;;;;10315169;28;20042;-52
2022/06/23 18:02:27;;;;;;;24.20;5.85;;;;;;;;;;10324783;28;20030;-55
2022/06/23 18:07:33;;;;;;;24.10;6.95;;;;;;;;;;10328273;28;20038;-55
2022/06/23 18:12:46;;;;;;;21.48;6.72;;;;;;;;;;10325832;28;20054;-51
2022/06/23 18:18:28;;;;;;;19.00;4.90;;;;;;;;;;10320875;28;20035;-54
2022/06/23 18:23:44;;;;;;;19.15;6.10;;;;;;;;;;10322288;28;20043;-54
2022/06/23 18:29:00;;;;;;;18.58;5.55;;;;;;;;;;10311423;28;20405;-53
2022/06/23 18:34:30;;;;;;;15.57;4.97;;;;;;;;;;10313416;28;20119;-55
2022/06/23 18:39:41;;;;;;;14.80;5.18;;;;;;;;;;10336971;28;20058;-53
2022/06/23 18:44:44;;;;;;;18.77;5.78;;;;;;;;;;10316541;28;20084;-52
2022/06/23 18:49:54;;;;;;;27.90;5.95;;;;;;;;;;10315212;28;20046;-49
2022/06/23 18:55:01;;;;;;;18.40;5.60;;;;;;;;;;10330196;28;20331;-53
2022/06/23 19:00:11;;;;;;;18.92;6.00;;;;;;;;;;10314786;28;20553;-54
2022/06/23 19:05:39;;;;;;;11.55;5.20;;;;;;;;;;10320726;28;20112;-52
2022/06/23 19:10:49;;;;;;;13.52;4.57;;;;;;;;;;10321519;28;20084;-51
2022/06/23 19:16:11;;;;;;;14.32;4.65;;;;;;;;;;10321198;28;20358;-56
2022/06/23 19:21:58;;;;;;;16.77;5.25;;;;;;;;;;10327529;28;20026;-54
2022/06/23 19:27:30;;;;;;;16.15;4.63;;;;;;;;;;10332701;28;20030;-53
2022/06/23 19:32:59;;;;;;;16.30;5.10;;;;;;;;;;10330383;28;21133;-54
2022/06/23 19:38:22;;;;;;;21.60;5.32;;;;;;;;;;10322686;28;20097;-56
2022/06/23 19:44:07;;;;;;;14.20;4.53;;;;;;;;;;10327860;28;20085;-56
2022/06/23 19:49:08;;;;;;;15.57;4.65;;;;;;;;;;10284196;28;20050;-56
2022/06/23 19:54:38;;;;;;;14.40;4.05;;;;;;;;;;10312009;28;20120;-56
2022/06/23 19:59:48;;;;;;;15.40;4.72;;;;;;;;;;10300715;28;20045;-59
2022/06/23 20:05:05;;;;;;;15.30;4.60;;;;;;;;;;10321416;28;20093;-51
2022/06/23 20:10:33;;;;;;;11.35;4.28;;;;;;;;;;10321828;28;20034;-52
2022/06/23 20:15:35;;;;;;;14.23;4.78;;;;;;;;;;10325108;28;20557;-50
2022/06/23 20:20:55;;;;;;;10.23;3.60;;;;;;;;;;10307903;28;20374;-51
2022/06/23 20:25:55;;;;;;;23.05;3.95;;;;;;;;;;10311800;28;20046;-60
2022/06/23 20:31:32;;;;;;;16.57;4.73;;;;;;;;;;10314199;28;20038;-51
2022/06/23 20:37:24;;;;;;;28.35;4.88;;;;;;;;;;10303916;28;20550;-53
2022/06/23 20:43:10;;;;;;;20.98;3.92;;;;;;;;;;10322694;28;20080;-57
2022/06/23 20:48:38;;;;;;;13.48;4.18;;;;;;;;;;10315847;28;20089;-58
2022/06/23 20:53:47;;;;;;;;;;;;;;;;;;10322587;28;20057;-51
2022/06/23 20:59:34;;;;;;;10.88;4.30;;;;;;;;;;10324494;28;19921;-49
2022/06/23 21:04:53;;;;;;;14.80;4.30;;;;;;;;;;10312429;28;20022;-55
2022/06/23 21:10:16;;;;;;;21.00;4.22;;;;;;;;;;10314361;28;20061;-58
2022/06/23 21:15:43;;;;;;;9.57;3.35;;;;;;;;;;10302057;28;20057;-59
2022/06/23 21:21:05;;;;;;;12.25;4.10;;;;;;;;;;10323163;28;20037;-59
2022/06/23 21:26:23;;;;;;;16.80;4.30;;;;;;;;;;10319245;28;20045;-59
2022/06/23 21:31:44;;;;;;;12.13;4.35;;;;;;;;;;10310926;28;20041;-56
2022/06/23 21:36:50;;;;;;;30.20;4.50;;;;;;;;;;10324581;28;20133;-49
2022/06/23 21:41:59;;;;;;;25.65;4.68;;;;;;;;;;10323181;28;20104;-51
2022/06/23 21:47:18;;;;;;;11.60;3.75;;;;;;;;;;10357237;23;20058;-55
2022/06/23 21:53:11;;;;;;;14.85;4.30;;;;;;;;;;10357734;28;20117;-55
2022/06/23 21:58:35;;;;;;;14.82;4.13;;;;;;;;;;10320770;28;20089;-57
2022/06/23 22:03:53;;;;;;;10.82;3.50;;;;;;;;;;10317606;28;20437;-55
2022/06/23 22:09:15;;;;;;;8.73;4.05;;;;;;;;;;10320990;28;20035;-56
2022/06/23 22:14:43;;;;;;;11.43;3.28;;;;;;;;;;10293099;28;20491;-51
2022/06/23 22:19:59;;;;;;;10.70;3.67;;;;;;;;;;10313846;28;20383;-52
2022/06/23 22:30:53;;;;;;;8.90;3.45;;;;;;;;;;10313377;28;20125;-56
2022/06/23 22:36:19;;;;;;;11.20;3.10;;;;;;;;;;10306575;28;20494;-52
2022/06/23 22:41:20;;;;;;;11.30;3.40;;;;;;;;;;10310388;28;20022;-55
2022/06/23 22:46:23;;;;;;;10.52;3.38;;;;;;;;;;10309950;28;20039;-50
2022/06/23 22:51:47;;;;;;;3.92;2.92;;;;;;;;;;10307138;28;20112;-52
2022/06/23 22:56:54;;;;;;;5.95;3.10;;;;;;;;;;10325863;28;20029;-49
2022/06/23 23:01:59;;;;;;;7.80;3.20;;;;;;;;;;10330231;28;20397;-55
2022/06/23 23:07:00;;;;;;;8.13;2.95;;;;;;;;;;10308574;28;20101;-52
2022/06/23 23:12:01;;;;;;;8.25;2.85;;;;;;;;;;10324444;28;20090;-51
2022/06/23 23:17:03;;;;;;;6.05;3.05;;;;;;;;;;10327726;28;20463;-55
2022/06/23 23:22:32;;;;;;;5.03;2.60;;;;;;;;;;10320401;28;20482;-53
2022/06/23 23:27:33;;;;;;;6.47;2.60;;;;;;;;;;10310852;28;20026;-59
2022/06/23 23:32:33;;;;;;;6.45;2.40;;;;;;;;;;10325657;28;20037;-49
2022/06/23 23:37:34;;;;;;;4.78;2.40;;;;;;;;;;10314881;28;20116;-50
2022/06/23 23:42:34;;;;;;;5.87;2.87;;;;;;;;;;10318806;28;20026;-51
2022/06/23 23:47:55;;;;;;;8.10;2.42;;;;;;;;;;10313332;28;20022;-55
2022/06/23 23:52:56;;;;;;;5.63;2.42;;;;;;;;;;10306397;28;20638;-54
2022/06/23 23:57:56;;;;;;;4.80;2.35;;;;;;;;;;10326627;28;20030;-56
